Time;durP1;ratioP1;P1;durP2;ratioP2;P2;SDS_P1;SDS_P2;PMS_P1;PMS_P2;Temp;Humidity;BMP_temperature;BMP_pressure;BME280_temperature;BME280_humidity;BME280_pressure;Samples;Min_cycle;Max_cycle;Signal;HPM_P1;HPM_P2
2021/09/23 00:02:37;;;;;;;4.20;3.60;;;11.70;99.90;;;;;;5012545;28;20741;-69
2021/09/23 00:04:59;;;;;;;5.00;4.47;;;11.80;99.90;;;;;;5011888;28;20188;-70
2021/09/23 00:07:24;;;;;;;4.23;3.83;;;11.70;99.90;;;;;;5012792;28;20411;-68
2021/09/23 00:09:50;;;;;;;6.90;4.73;;;11.70;99.90;;;;;;5012709;28;20419;-69
2021/09/23 00:12:15;;;;;;;7.30;4.30;;;11.80;99.90;;;;;;5012784;28;20223;-70
2021/09/23 00:14:41;;;;;;;5.80;4.30;;;11.70;99.90;;;;;;5012233;28;20216;-69
2021/09/23 00:17:07;;;;;;;6.47;5.03;;;11.70;99.90;;;;;;4994572;28;20192;-69
2021/09/23 00:19:33;;;;;;;5.30;4.27;;;11.60;99.90;;;;;;5012551;28;20168;-68
2021/09/23 00:21:58;;;;;;;8.13;4.97;;;11.60;99.90;;;;;;5012198;28;20454;-69
2021/09/23 00:24:24;;;;;;;6.00;4.90;;;11.60;99.90;;;;;;5012188;28;20533;-70
2021/09/23 00:26:49;;;;;;;7.53;5.67;;;11.50;99.90;;;;;;5012246;28;20226;-69
2021/09/23 00:29:15;;;;;;;5.90;4.40;;;11.50;99.90;;;;;;5012197;28;20169;-68
2021/09/23 00:31:40;;;;;;;7.17;5.50;;;11.50;99.90;;;;;;5012433;28;20180;-68
2021/09/23 00:34:06;;;;;;;5.13;4.63;;;11.60;99.90;;;;;;4994299;28;20327;-70
2021/09/23 00:36:31;;;;;;;6.60;5.37;;;11.60;99.90;;;;;;5012442;28;20211;-69
2021/09/23 00:38:57;;;;;;;7.23;4.57;;;11.60;99.90;;;;;;5012300;28;20207;-69
2021/09/23 00:41:22;;;;;;;6.63;5.40;;;11.60;99.90;;;;;;5012013;28;20200;-69
2021/09/23 00:43:48;;;;;;;10.13;4.80;;;11.50;99.90;;;;;;5011832;28;20175;-69
2021/09/23 00:46:13;;;;;;;7.03;5.00;;;11.50;99.90;;;;;;5011867;28;20196;-68
2021/09/23 00:48:39;;;;;;;7.73;5.80;;;11.50;99.90;;;;;;5012055;28;20172;-69
2021/09/23 00:51:05;;;;;;;9.03;5.30;;;11.50;99.90;;;;;;5012470;28;20175;-70
2021/09/23 00:53:33;;;;;;;7.93;5.77;;;11.60;99.90;;;;;;5011768;28;20641;-70
2021/09/23 00:55:58;;;;;;;7.40;6.10;;;11.60;99.90;;;;;;5011745;28;20435;-70
2021/09/23 00:58:25;;;;;;;7.67;5.23;;;11.50;99.90;;;;;;4993948;28;20810;-69
2021/09/23 01:00:50;;;;;;;13.97;5.20;;;11.60;99.90;;;;;;5012091;28;20168;-70
2021/09/23 01:03:16;;;;;;;8.80;6.80;;;11.50;99.90;;;;;;5011699;28;20473;-68
2021/09/23 01:05:42;;;;;;;11.17;6.47;;;11.50;99.90;;;;;;5011529;28;20227;-69
2021/09/23 01:08:08;;;;;;;8.93;6.70;;;11.50;99.90;;;;;;5011524;28;20168;-68
2021/09/23 01:10:33;;;;;;;9.37;7.37;;;11.50;99.90;;;;;;4993903;28;20427;-69
2021/09/23 01:12:59;;;;;;;10.00;6.67;;;11.50;99.90;;;;;;5011305;28;20326;-69
2021/09/23 01:15:24;;;;;;;12.33;7.10;;;11.50;99.90;;;;;;5011542;28;20278;-69
2021/09/23 01:17:50;;;;;;;8.80;7.67;;;11.50;99.90;;;;;;5011327;28;20257;-69
2021/09/23 01:20:17;;;;;;;9.27;7.47;;;11.50;99.90;;;;;;5011663;28;20167;-70
2021/09/23 01:22:43;;;;;;;10.87;6.27;;;11.50;99.90;;;;;;5011480;28;20175;-70
2021/09/23 01:25:10;;;;;;;11.97;7.37;;;11.50;99.90;;;;;;5011470;28;20428;-69
2021/09/23 01:27:36;;;;;;;10.17;7.33;;;11.50;99.90;;;;;;4993753;28;20914;-67
2021/09/23 01:30:03;;;;;;;9.07;5.60;;;11.50;99.90;;;;;;5011381;28;20407;-69
2021/09/23 01:32:29;;;;;;;13.27;7.87;;;11.50;99.90;;;;;;5011448;28;20254;-68
2021/09/23 01:34:54;;;;;;;12.20;7.63;;;11.50;99.90;;;;;;5011281;28;20501;-69
2021/09/23 01:37:20;;;;;;;10.63;7.40;;;11.50;99.90;;;;;;5011368;28;20678;-68
2021/09/23 01:39:45;;;;;;;10.30;6.60;;;11.50;99.90;;;;;;5011300;28;20164;-70
2021/09/23 01:42:11;;;;;;;12.43;7.40;;;11.60;99.90;;;;;;5008997;28;20540;-69
2021/09/23 01:44:36;;;;;;;8.90;7.50;;;11.60;99.90;;;;;;5011124;28;20194;-68
2021/09/23 01:47:03;;;;;;;8.83;7.07;;;11.60;99.90;;;;;;4993618;28;20176;-70
2021/09/23 01:49:30;;;;;;;9.57;7.37;;;11.60;99.90;;;;;;5011349;28;20600;-69
2021/09/23 01:51:56;;;;;;;8.50;7.10;;;11.60;99.90;;;;;;5011352;28;20445;-70
2021/09/23 01:54:22;;;;;;;11.00;7.20;;;11.70;99.90;;;;;;5010995;28;20415;-69
2021/09/23 01:56:53;;;;;;;9.60;6.27;;;11.60;99.90;;;;;;5011269;28;20548;-68
2021/09/23 01:59:23;;;;;;;12.07;7.17;;;11.60;99.90;;;;;;5011135;28;20972;-69
2021/09/23 02:01:49;;;;;;;14.10;9.37;;;11.60;99.90;;;;;;5011116;28;20403;-69
2021/09/23 02:04:14;;;;;;;13.47;9.00;;;11.50;99.90;;;;;;5010669;28;20925;-70
2021/09/23 02:06:40;;;;;;;11.57;8.20;;;11.50;99.90;;;;;;5011059;28;20400;-70
2021/09/23 02:09:05;;;;;;;10.53;7.67;;;11.50;99.90;;;;;;5011174;28;20169;-69
2021/09/23 02:11:31;;;;;;;10.37;7.90;;;11.60;99.90;;;;;;4993235;28;20252;-70
2021/09/23 02:13:56;;;;;;;12.63;8.17;;;11.50;99.90;;;;;;5010980;28;20184;-69
2021/09/23 02:16:22;;;;;;;11.43;8.90;;;11.50;99.90;;;;;;5010883;28;20196;-68
2021/09/23 02:18:47;;;;;;;12.60;8.37;;;11.50;99.90;;;;;;5010783;28;20207;-68
2021/09/23 02:21:13;;;;;;;16.00;9.00;;;11.50;99.90;;;;;;5013365;28;20184;-69
2021/09/23 02:23:39;;;;;;;12.70;8.00;;;11.50;99.90;;;;;;5014532;28;20623;-69
2021/09/23 02:26:04;;;;;;;11.13;8.00;;;11.50;99.90;;;;;;5014426;28;20199;-69
2021/09/23 02:28:31;;;;;;;12.53;9.40;;;11.50;99.90;;;;;;5014642;28;20419;-69
2021/09/23 02:30:56;;;;;;;12.10;8.63;;;11.50;99.90;;;;;;4997110;28;20175;-69
2021/09/23 02:33:22;;;;;;;15.83;9.93;;;11.50;99.90;;;;;;5014420;28;20996;-69
2021/09/23 02:35:48;;;;;;;14.10;9.57;;;11.50;99.90;;;;;;5014060;28;20192;-68
2021/09/23 02:38:29;;;;;;;17.20;8.27;;;11.40;99.90;;;;;;5014442;28;20208;-69
2021/09/23 02:40:55;;;;;;;10.53;7.97;;;11.40;99.90;;;;;;4996570;28;20222;-69
2021/09/23 02:43:22;;;;;;;12.40;8.70;;;11.50;99.90;;;;;;4996959;28;20407;-69
2021/09/23 02:45:47;;;;;;;11.73;7.30;;;11.50;99.90;;;;;;5014680;28;20427;-69
2021/09/23 02:48:13;;;;;;;14.43;8.90;;;11.50;99.90;;;;;;5014232;28;20412;-68
2021/09/23 02:50:38;;;;;;;13.47;10.00;;;11.50;99.90;;;;;;5014510;28;20179;-68
2021/09/23 02:53:04;;;;;;;13.47;9.00;;;11.40;99.90;;;;;;5014246;28;20176;-69
2021/09/23 02:55:29;;;;;;;17.90;9.23;;;11.50;99.90;;;;;;5013808;28;20243;-69
2021/09/23 02:57:55;;;;;;;13.40;9.30;;;11.50;99.90;;;;;;5013967;28;20203;-69
2021/09/23 03:00:20;;;;;;;12.20;8.50;;;11.60;99.90;;;;;;5013901;28;20168;-69
2021/09/23 03:02:46;;;;;;;11.60;8.43;;;11.50;99.90;;;;;;5013741;28;20176;-69
2021/09/23 03:05:11;;;;;;;17.00;10.50;;;11.40;99.90;;;;;;5013931;28;20267;-68
2021/09/23 03:07:42;;;;;;;14.67;9.30;;;11.50;99.90;;;;;;5014214;28;20195;-68
2021/09/23 03:10:08;;;;;;;13.70;10.23;;;11.40;99.90;;;;;;5013856;28;20180;-70
2021/09/23 03:12:34;;;;;;;15.97;9.20;;;11.40;99.90;;;;;;5013903;28;20786;-69
2021/09/23 03:14:59;;;;;;;18.17;9.70;;;11.50;99.90;;;;;;5013650;28;20203;-70
2021/09/23 03:17:25;;;;;;;15.37;8.80;;;11.50;99.90;;;;;;5013497;28;20686;-68
2021/09/23 03:19:52;;;;;;;15.07;10.13;;;11.40;99.90;;;;;;5013741;28;20196;-69
2021/09/23 03:22:19;;;;;;;16.00;9.03;;;11.40;99.90;;;;;;5014717;28;20192;-68
2021/09/23 03:24:45;;;;;;;16.17;9.40;;;11.40;99.90;;;;;;5013218;28;20498;-68
2021/09/23 03:27:11;;;;;;;14.53;10.10;;;11.40;99.90;;;;;;5013529;28;20403;-67
2021/09/23 03:29:36;;;;;;;18.30;10.53;;;11.40;99.90;;;;;;5013225;28;20411;-69
2021/09/23 03:32:02;;;;;;;16.17;10.20;;;11.40;99.90;;;;;;5012534;28;20639;-70
2021/09/23 03:34:27;;;;;;;17.70;9.77;;;11.30;99.90;;;;;;5013157;28;20684;-69
2021/09/23 03:36:53;;;;;;;13.17;10.63;;;11.30;99.90;;;;;;5013375;28;20551;-69
2021/09/23 03:39:19;;;;;;;11.43;10.00;;;11.40;99.90;;;;;;4995559;28;20235;-69
2021/09/23 03:41:44;;;;;;;14.30;9.17;;;11.40;99.90;;;;;;5012607;28;20576;-68
2021/09/23 03:44:12;;;;;;;20.00;11.53;;;11.30;99.90;;;;;;5012630;28;20161;-68
2021/09/23 03:46:38;;;;;;;12.30;8.73;;;11.30;99.90;;;;;;5012897;28;20165;-69
2021/09/23 03:49:03;;;;;;;15.07;9.47;;;11.40;99.90;;;;;;5013023;28;20452;-68
2021/09/23 03:51:29;;;;;;;14.63;10.60;;;11.30;99.90;;;;;;5013009;28;20184;-71
2021/09/23 03:53:55;;;;;;;17.63;8.87;;;11.40;99.90;;;;;;5012756;28;20215;-68
2021/09/23 03:56:20;;;;;;;13.53;8.90;;;11.30;99.90;;;;;;5012907;28;20196;-68
2021/09/23 03:58:46;;;;;;;14.30;8.13;;;11.20;99.90;;;;;;5012710;28;20196;-68
2021/09/23 04:01:12;;;;;;;10.60;8.33;;;11.20;99.90;;;;;;5012503;28;20171;-69
2021/09/23 04:03:38;;;;;;;11.60;8.40;;;11.20;99.90;;;;;;5012572;28;20639;-69
2021/09/23 04:06:06;;;;;;;15.37;9.60;;;11.20;99.90;;;;;;5012798;28;20430;-68
2021/09/23 04:08:32;;;;;;;14.30;10.33;;;11.20;99.90;;;;;;5012771;28;20171;-69
2021/09/23 04:10:57;;;;;;;15.20;9.00;;;11.20;99.90;;;;;;5012589;28;20414;-69
2021/09/23 04:13:23;;;;;;;14.10;8.07;;;11.10;99.90;;;;;;5012461;28;20176;-69
2021/09/23 04:15:49;;;;;;;11.03;7.90;;;11.00;99.90;;;;;;5012328;28;20551;-68
2021/09/23 04:18:16;;;;;;;10.07;7.47;;;11.00;99.90;;;;;;5012338;28;20568;-68
2021/09/23 04:20:43;;;;;;;11.47;8.50;;;11.10;99.90;;;;;;5012734;28;20621;-67
2021/09/23 04:23:11;;;;;;;14.83;8.70;;;11.20;99.90;;;;;;5012752;28;20439;-70
2021/09/23 04:25:37;;;;;;;13.87;8.67;;;11.20;99.90;;;;;;5012542;28;20458;-69
2021/09/23 04:28:03;;;;;;;14.13;10.40;;;11.20;99.90;;;;;;5012306;28;20832;-68
2021/09/23 04:30:28;;;;;;;11.43;8.37;;;11.20;99.90;;;;;;5012322;28;20191;-69
2021/09/23 04:32:54;;;;;;;14.37;8.30;;;11.30;99.90;;;;;;5012519;28;20244;-69
2021/09/23 04:35:19;;;;;;;13.97;9.60;;;11.30;99.90;;;;;;5012278;28;20203;-68
2021/09/23 04:37:44;;;;;;;13.80;10.10;;;11.30;99.90;;;;;;5012030;28;20233;-70
2021/09/23 04:40:11;;;;;;;16.37;9.60;;;11.30;99.90;;;;;;5012163;28;20174;-68
2021/09/23 04:42:39;;;;;;;13.47;9.20;;;11.20;99.90;;;;;;5012072;28;20176;-68
2021/09/23 04:45:06;;;;;;;13.40;8.20;;;11.20;99.90;;;;;;5008763;28;20442;-67
2021/09/23 04:47:34;;;;;;;17.67;9.60;;;11.20;99.90;;;;;;5012009;28;20495;-68
2021/09/23 04:50:02;;;;;;;12.50;9.00;;;11.10;99.90;;;;;;5012116;28;20207;-69
2021/09/23 04:52:28;;;;;;;14.47;9.47;;;11.10;99.90;;;;;;5011833;28;20403;-68
2021/09/23 04:54:53;;;;;;;10.40;9.00;;;11.10;99.90;;;;;;5011802;28;20530;-68
2021/09/23 04:57:19;;;;;;;11.63;8.00;;;11.00;99.90;;;;;;5011683;28;20180;-70
2021/09/23 04:59:44;;;;;;;11.73;7.70;;;11.00;99.90;;;;;;5011817;28;20674;-68
2021/09/23 05:02:10;;;;;;;10.30;8.53;;;11.00;99.90;;;;;;4994107;28;20172;-68
2021/09/23 05:04:35;;;;;;;12.07;8.10;;;11.00;99.90;;;;;;5011691;28;20563;-70
2021/09/23 05:07:04;;;;;;;14.30;8.90;;;11.00;99.90;;;;;;5011619;28;20270;-69
2021/09/23 05:09:31;;;;;;;18.27;9.90;;;11.00;99.90;;;;;;5011800;28;20230;-69
2021/09/23 05:11:59;;;;;;;9.53;7.90;;;11.00;99.90;;;;;;5011452;28;20995;-69
2021/09/23 05:14:26;;;;;;;12.27;8.90;;;11.00;99.90;;;;;;5011479;28;20442;-69
2021/09/23 05:16:52;;;;;;;13.97;8.60;;;11.00;99.90;;;;;;5011637;28;20403;-68
2021/09/23 05:19:17;;;;;;;12.27;9.27;;;11.00;99.90;;;;;;5011664;28;20569;-68
2021/09/23 05:21:43;;;;;;;14.10;8.47;;;11.10;99.90;;;;;;5011404;28;20640;-68
2021/09/23 05:24:12;;;;;;;13.73;8.00;;;11.10;99.90;;;;;;5011316;28;20168;-68
2021/09/23 05:26:40;;;;;;;18.63;10.43;;;11.20;99.90;;;;;;5011365;28;20643;-69
2021/09/23 05:29:09;;;;;;;15.17;9.90;;;11.30;99.90;;;;;;5011526;28;20434;-71
2021/09/23 05:31:35;;;;;;;15.77;11.43;;;11.30;99.90;;;;;;5011285;28;20418;-70
2021/09/23 05:34:04;;;;;;;23.10;11.40;;;11.40;99.90;;;;;;5011273;28;20487;-69
2021/09/23 05:36:30;;;;;;;17.60;11.10;;;11.40;99.90;;;;;;5011252;28;20434;-69
2021/09/23 05:38:59;;;;;;;18.23;10.67;;;11.40;99.90;;;;;;5011194;28;20878;-68
2021/09/23 05:41:26;;;;;;;15.37;9.77;;;11.50;99.90;;;;;;5011384;28;20168;-69
2021/09/23 05:43:52;;;;;;;21.73;11.10;;;11.50;99.90;;;;;;5011210;28;20411;-69
2021/09/23 05:46:17;;;;;;;15.80;9.93;;;11.60;99.90;;;;;;5011482;28;20427;-69
2021/09/23 05:48:43;;;;;;;17.47;11.23;;;11.60;99.90;;;;;;5011217;28;20509;-69
2021/09/23 05:51:08;;;;;;;15.40;10.97;;;11.70;99.90;;;;;;5010957;28;20172;-68
2021/09/23 05:53:34;;;;;;;16.53;10.70;;;11.80;99.90;;;;;;5011454;28;20172;-69
2021/09/23 05:55:59;;;;;;;19.27;11.43;;;11.90;99.90;;;;;;5013626;28;20216;-70
2021/09/23 05:58:25;;;;;;;16.80;9.77;;;12.10;99.90;;;;;;5015106;28;20204;-69
2021/09/23 06:00:50;;;;;;;16.37;10.60;;;12.30;99.90;;;;;;5015182;28;20176;-69
2021/09/23 06:03:16;;;;;;;12.90;9.93;;;12.40;99.90;;;;;;5014815;28;20268;-69
2021/09/23 06:05:47;;;;;;;13.37;10.87;;;12.50;99.90;;;;;;5014809;28;20195;-70
2021/09/23 06:08:12;;;;;;;12.87;9.10;;;12.70;99.90;;;;;;5014792;28;20782;-70
2021/09/23 06:10:38;;;;;;;14.20;8.90;;;12.60;99.90;;;;;;5014823;28;20426;-69
2021/09/23 06:13:05;;;;;;;11.17;8.80;;;12.70;99.90;;;;;;5014692;28;20180;-70
2021/09/23 06:15:31;;;;;;;14.17;9.30;;;12.70;99.90;;;;;;5014787;28;20202;-69
2021/09/23 06:17:56;;;;;;;14.53;9.10;;;12.80;99.90;;;;;;5014499;28;20458;-69
2021/09/23 06:20:25;;;;;;;13.97;8.60;;;12.90;99.90;;;;;;5014803;28;20652;-69
2021/09/23 06:22:51;;;;;;;14.40;10.17;;;13.00;99.90;;;;;;5014566;28;20164;-69
2021/09/23 06:25:17;;;;;;;14.20;9.07;;;12.90;99.90;;;;;;5014804;28;20972;-69
2021/09/23 06:27:45;;;;;;;11.20;8.77;;;13.00;99.90;;;;;;5015368;28;20477;-69
2021/09/23 06:30:12;;;;;;;13.03;8.80;;;13.20;99.90;;;;;;5014986;28;20415;-70
2021/09/23 06:32:38;;;;;;;14.30;10.53;;;13.40;99.90;;;;;;5014987;28;20414;-69
2021/09/23 06:35:04;;;;;;;13.80;9.73;;;13.40;99.90;;;;;;5014816;28;20472;-69
2021/09/23 06:37:30;;;;;;;14.40;9.07;;;13.50;99.90;;;;;;5014734;28;20443;-69
2021/09/23 06:39:55;;;;;;;13.80;9.67;;;14.10;99.90;;;;;;5014973;28;20411;-69
2021/09/23 06:42:21;;;;;;;12.33;9.10;;;14.40;99.90;;;;;;5014849;28;20173;-69
2021/09/23 06:44:46;;;;;;;12.13;8.67;;;14.60;99.90;;;;;;5014643;28;20213;-70
2021/09/23 06:47:13;;;;;;;15.50;8.97;;;14.40;99.90;;;;;;5014832;28;20166;-69
2021/09/23 06:49:38;;;;;;;11.33;8.00;;;14.50;99.90;;;;;;5014754;28;20967;-70
2021/09/23 06:52:04;;;;;;;12.63;8.10;;;14.40;99.90;;;;;;5014379;28;20445;-70
2021/09/23 06:54:29;;;;;;;12.07;8.23;;;14.50;99.90;;;;;;5014351;28;20554;-70
2021/09/23 06:56:55;;;;;;;11.37;9.23;;;14.50;99.90;;;;;;5014570;28;20314;-70
2021/09/23 06:59:23;;;;;;;11.80;7.67;;;14.60;99.90;;;;;;5014368;28;20739;-68
2021/09/23 07:01:52;;;;;;;11.83;8.23;;;14.80;99.90;;;;;;5014421;28;20171;-69
2021/09/23 07:04:18;;;;;;;12.30;8.80;;;14.70;99.90;;;;;;5014147;28;20415;-70
2021/09/23 07:06:43;;;;;;;11.20;8.40;;;15.40;99.90;;;;;;5013660;28;20408;-69
2021/09/23 07:09:09;;;;;;;14.73;9.27;;;15.10;99.90;;;;;;5014421;28;20410;-71
2021/09/23 07:11:36;;;;;;;12.10;7.70;;;15.30;99.90;;;;;;5014262;28;20170;-70
2021/09/23 07:14:02;;;;;;;14.67;8.27;;;15.20;99.90;;;;;;5014198;28;20592;-69
2021/09/23 07:16:28;;;;;;;10.67;9.57;;;14.70;99.90;;;;;;5014168;28;20438;-68
2021/09/23 07:18:53;;;;;;;10.00;7.33;;;15.50;99.90;;;;;;5013894;28;20465;-69
2021/09/23 07:21:19;;;;;;;10.00;8.30;;;15.70;99.90;;;;;;5013470;28;20537;-69
2021/09/23 07:23:45;;;;;;;10.63;8.47;;;16.10;99.90;;;;;;5014215;28;20167;-70
2021/09/23 07:26:10;;;;;;;9.13;7.83;;;16.90;99.90;;;;;;4996478;28;20255;-69
2021/09/23 07:28:36;;;;;;;9.03;8.13;;;17.10;99.90;;;;;;5014169;28;20537;-68
2021/09/23 07:31:02;;;;;;;16.57;9.30;;;17.60;99.90;;;;;;5013949;28;20179;-69
2021/09/23 07:33:28;;;;;;;12.70;8.63;;;17.20;99.90;;;;;;4996410;28;20259;-70
2021/09/23 07:35:54;;;;;;;9.60;7.60;;;17.60;99.90;;;;;;5013707;28;21074;-69
2021/09/23 07:38:21;;;;;;;11.53;8.20;;;17.70;99.90;;;;;;5013689;28;20203;-70
2021/09/23 07:40:46;;;;;;;12.10;8.47;;;17.80;99.90;;;;;;5013499;28;20568;-69
2021/09/23 07:43:15;;;;;;;8.67;7.30;;;17.70;99.90;;;;;;5013289;28;21069;-69
2021/09/23 07:45:40;;;;;;;9.90;7.70;;;18.20;99.90;;;;;;5013492;28;20196;-70
2021/09/23 07:48:06;;;;;;;10.43;7.83;;;17.60;99.90;;;;;;5012934;28;20410;-70
2021/09/23 07:50:31;;;;;;;12.87;8.70;;;17.10;99.90;;;;;;5013680;28;20529;-69
2021/09/23 07:53:00;;;;;;;10.63;7.77;;;17.70;99.90;;;;;;5013065;28;20261;-68
2021/09/23 07:55:29;;;;;;;12.40;8.03;;;17.60;99.90;;;;;;5012700;28;20314;-69
2021/09/23 07:57:54;;;;;;;12.60;8.10;;;17.70;99.90;;;;;;5012909;28;20459;-69
2021/09/23 08:00:20;;;;;;;11.33;8.43;;;18.60;99.90;;;;;;5012899;28;20410;-69
2021/09/23 08:02:46;;;;;;;9.00;7.17;;;17.90;99.90;;;;;;5012737;28;20179;-69
2021/09/23 08:05:12;;;;;;;10.10;7.30;;;19.20;99.90;;;;;;5012765;28;20272;-69
2021/09/23 08:07:39;;;;;;;13.10;10.67;;;19.50;99.90;;;;;;5012916;28;20253;-70
2021/09/23 08:10:05;;;;;;;11.10;9.00;;;18.60;99.90;;;;;;5012861;28;20409;-69
2021/09/23 08:12:33;;;;;;;10.43;7.47;;;19.10;99.90;;;;;;5012672;28;20780;-69
2021/09/23 08:14:58;;;;;;;11.60;8.57;;;18.80;99.90;;;;;;5012709;28;20440;-68
2021/09/23 08:17:24;;;;;;;11.53;8.03;;;18.90;99.90;;;;;;4994764;28;20431;-69
2021/09/23 08:19:49;;;;;;;13.93;8.30;;;18.80;99.90;;;;;;5012648;28;20164;-69
2021/09/23 08:22:15;;;;;;;9.97;7.40;;;18.40;99.90;;;;;;5012632;28;20210;-69
2021/09/23 08:24:40;;;;;;;8.57;6.73;;;18.30;99.90;;;;;;5012584;28;20202;-69
2021/09/23 08:27:06;;;;;;;10.37;7.43;;;17.70;99.90;;;;;;4994948;28;20629;-69
2021/09/23 08:29:32;;;;;;;9.57;6.90;;;18.10;99.90;;;;;;5012405;28;20174;-70
2021/09/23 08:31:58;;;;;;;9.77;6.23;;;18.00;99.90;;;;;;5011935;28;20188;-70
2021/09/23 08:34:23;;;;;;;9.87;8.33;;;18.00;99.90;;;;;;5012025;28;20875;-69
2021/09/23 08:36:48;;;;;;;10.00;7.63;;;17.80;99.90;;;;;;5012359;28;20249;-69
2021/09/23 08:39:14;;;;;;;13.50;8.07;;;18.00;99.90;;;;;;5012215;28;20241;-69
2021/09/23 08:41:40;;;;;;;11.70;7.00;;;17.60;99.90;;;;;;4994609;28;20246;-70
2021/09/23 08:44:05;;;;;;;10.10;7.17;;;17.50;99.90;;;;;;5011882;28;20178;-69
2021/09/23 08:46:34;;;;;;;8.77;6.77;;;18.10;99.90;;;;;;4994078;28;20168;-70
2021/09/23 08:49:00;;;;;;;9.17;6.87;;;17.90;99.90;;;;;;5012133;28;20207;-69
2021/09/23 08:51:27;;;;;;;10.07;6.70;;;17.60;99.90;;;;;;5011798;28;20774;-69
2021/09/23 08:53:52;;;;;;;8.80;7.60;;;17.70;99.90;;;;;;5011740;28;20430;-69
2021/09/23 08:56:19;;;;;;;11.80;7.10;;;17.30;99.90;;;;;;5011855;28;20942;-70
2021/09/23 08:58:45;;;;;;;11.50;7.50;;;17.70;99.90;;;;;;5011964;28;20200;-70
2021/09/23 09:01:18;;;;;;;9.93;6.57;;;17.40;99.90;;;;;;5011640;28;20441;-69
2021/09/23 09:03:45;;;;;;;12.03;7.50;;;17.30;99.90;;;;;;5011995;28;20464;-69
2021/09/23 09:06:13;;;;;;;10.10;7.57;;;16.90;99.90;;;;;;4994289;28;20481;-70
2021/09/23 09:08:40;;;;;;;8.63;7.27;;;17.30;99.90;;;;;;5012073;28;20412;-70
2021/09/23 09:11:09;;;;;;;9.33;6.13;;;17.70;99.90;;;;;;5011765;28;20448;-68
2021/09/23 09:13:37;;;;;;;8.73;6.40;;;17.90;99.90;;;;;;5011440;28;20405;-69
2021/09/23 09:16:09;;;;;;;6.73;5.10;;;17.60;99.90;;;;;;5011543;28;20518;-70
2021/09/23 09:18:38;;;;;;;9.33;6.53;;;17.60;99.90;;;;;;5011475;28;20469;-68
2021/09/23 09:21:08;;;;;;;8.40;6.87;;;18.20;99.90;;;;;;5011218;28;20420;-68
2021/09/23 09:23:39;;;;;;;8.43;5.83;;;18.30;99.90;;;;;;5012026;28;20907;-69
2021/09/23 09:26:05;;;;;;;9.40;6.83;;;18.10;99.90;;;;;;5012075;28;20447;-69
2021/09/23 09:28:45;;;;;;;9.70;6.47;;;18.10;99.90;;;;;;5011570;28;20430;-70
2021/09/23 09:31:10;;;;;;;7.33;5.20;;;18.20;99.90;;;;;;5010831;28;20431;-69
2021/09/23 09:33:40;;;;;;;6.30;5.53;;;18.40;99.90;;;;;;5011620;28;20428;-69
2021/09/23 09:36:32;;;;;;;5.63;4.80;;;18.90;99.90;;;;;;5011366;28;20244;-70
2021/09/23 09:39:02;;;;;;;7.30;4.83;;;19.00;99.90;;;;;;5011386;28;20485;-71
2021/09/23 09:41:39;;;;;;;6.70;5.10;;;18.60;99.90;;;;;;5011567;28;20413;-69
2021/09/23 09:44:10;;;;;;;7.13;4.87;;;18.60;99.90;;;;;;4995347;28;20404;-69
2021/09/23 09:46:41;;;;;;;6.83;5.73;;;19.00;99.90;;;;;;5012082;28;20409;-71
2021/09/23 09:49:08;;;;;;;9.43;5.97;;;18.60;99.90;;;;;;5011999;28;20421;-72
2021/09/23 09:51:38;;;;;;;5.57;4.80;;;18.40;99.90;;;;;;5011769;28;21088;-71
2021/09/23 09:54:05;;;;;;;8.10;6.70;;;18.60;99.90;;;;;;5011782;28;20418;-72
2021/09/23 09:56:30;;;;;;;9.47;5.47;;;19.00;99.90;;;;;;5011963;28;20421;-71
2021/09/23 09:59:04;;;;;;;5.63;4.60;;;18.60;99.90;;;;;;4994300;28;20458;-71
2021/09/23 10:01:29;;;;;;;10.93;5.27;;;18.80;99.90;;;;;;5011775;28;20165;-71
2021/09/23 10:03:56;;;;;;;6.27;5.47;;;18.80;99.90;;;;;;5012047;28;20419;-68
2021/09/23 10:06:21;;;;;;;8.50;4.67;;;18.80;99.90;;;;;;5011215;28;20428;-69
2021/09/23 10:08:48;;;;;;;6.77;5.40;;;19.00;99.90;;;;;;5011642;28;20821;-70
2021/09/23 10:11:14;;;;;;;5.10;4.40;;;18.90;99.90;;;;;;4993985;28;20300;-69
2021/09/23 10:13:41;;;;;;;9.23;5.00;;;18.90;99.90;;;;;;5011444;28;20560;-69
2021/09/23 10:16:06;;;;;;;4.80;3.90;;;19.00;99.90;;;;;;5010550;28;20203;-70
2021/09/23 10:18:34;;;;;;;5.80;4.40;;;19.30;99.90;;;;;;4993191;28;20465;-68
2021/09/23 10:21:01;;;;;;;6.73;5.47;;;19.60;99.90;;;;;;5010757;28;20176;-69
2021/09/23 10:23:29;;;;;;;6.57;4.90;;;19.60;99.90;;;;;;5010724;28;20416;-69
2021/09/23 10:25:55;;;;;;;6.03;5.40;;;19.70;99.90;;;;;;5010811;28;20458;-69
2021/09/23 10:28:22;;;;;;;4.73;4.30;;;19.70;99.90;;;;;;5011035;28;20431;-69
2021/09/23 10:30:48;;;;;;;6.20;5.03;;;19.50;99.90;;;;;;5010573;28;20408;-68
2021/09/23 10:33:13;;;;;;;5.83;4.70;;;19.40;99.90;;;;;;5010851;28;20450;-68
2021/09/23 10:35:40;;;;;;;6.17;4.23;;;19.10;99.90;;;;;;5010534;28;20438;-69
2021/09/23 10:38:09;;;;;;;7.23;4.83;;;19.50;99.90;;;;;;5010706;28;20205;-70
2021/09/23 10:40:37;;;;;;;8.10;5.23;;;19.20;99.90;;;;;;5010941;28;20500;-68
2021/09/23 10:43:11;;;;;;;5.17;4.67;;;19.00;99.90;;;;;;5012975;28;20429;-68
2021/09/23 10:45:39;;;;;;;7.40;5.20;;;19.20;99.90;;;;;;5014371;28;20432;-70
2021/09/23 10:48:05;;;;;;;5.47;4.47;;;19.40;99.90;;;;;;5014294;28;20544;-69
2021/09/23 10:50:33;;;;;;;7.73;4.43;;;19.30;99.90;;;;;;5014112;28;20508;-69
2021/09/23 10:53:04;;;;;;;5.83;4.13;;;19.30;99.90;;;;;;5014095;28;20179;-69
2021/09/23 10:55:35;;;;;;;4.90;4.40;;;19.30;99.90;;;;;;5013918;28;20513;-70
2021/09/23 10:58:02;;;;;;;5.63;4.30;;;19.30;99.90;;;;;;5014103;28;20480;-70
2021/09/23 11:00:32;;;;;;;7.33;4.90;;;19.50;99.90;;;;;;5014101;28;20490;-67
2021/09/23 11:02:57;;;;;;;5.10;4.07;;;19.40;99.90;;;;;;5013968;28;20401;-69
2021/09/23 11:05:27;;;;;;;4.97;3.60;;;19.20;99.90;;;;;;5014030;28;20421;-70
2021/09/23 11:07:56;;;;;;;4.90;4.00;;;19.50;99.90;;;;;;5013943;28;20188;-69
2021/09/23 11:10:23;;;;;;;4.27;3.80;;;19.80;99.90;;;;;;5013800;28;20411;-69
2021/09/23 11:12:55;;;;;;;3.93;3.40;;;19.60;99.90;;;;;;5013994;28;20518;-69
2021/09/23 11:15:24;;;;;;;4.07;3.67;;;19.90;99.90;;;;;;5013803;28;20439;-70
2021/09/23 11:17:51;;;;;;;6.83;3.80;;;19.70;99.90;;;;;;5015258;28;20468;-69
2021/09/23 11:20:20;;;;;;;5.30;3.93;;;19.90;99.90;;;;;;5014456;28;20411;-70
2021/09/23 11:22:51;;;;;;;4.67;3.63;;;19.70;99.90;;;;;;5013580;28;20988;-70
2021/09/23 11:25:24;;;;;;;4.70;3.27;;;20.00;99.90;;;;;;5013396;28;20838;-70
2021/09/23 11:27:51;;;;;;;5.33;4.40;;;19.90;99.90;;;;;;5014047;28;20526;-71
2021/09/23 11:30:19;;;;;;;5.63;4.00;;;19.80;99.90;;;;;;5014251;28;20477;-71
2021/09/23 11:33:00;;;;;;;4.20;3.40;;;19.80;99.90;;;;;;5014676;28;20416;-71
2021/09/23 11:35:30;;;;;;;3.60;3.30;;;19.90;99.90;;;;;;5013848;28;20555;-71
2021/09/23 11:37:57;;;;;;;3.73;2.80;;;19.80;99.90;;;;;;5014266;28;20453;-71
2021/09/23 11:40:29;;;;;;;3.67;3.37;;;19.60;99.90;;;;;;4996898;28;20410;-70
2021/09/23 11:42:55;;;;;;;4.53;2.87;;;19.60;99.90;;;;;;5014041;28;20416;-71
2021/09/23 11:45:27;;;;;;;5.30;3.17;;;19.50;99.90;;;;;;5014231;28;20457;-71
2021/09/23 11:47:55;;;;;;;4.43;2.73;;;19.60;99.90;;;;;;5013355;28;20506;-71
2021/09/23 11:50:27;;;;;;;3.40;2.90;;;19.50;99.90;;;;;;5014157;28;20410;-72
2021/09/23 11:52:58;;;;;;;3.40;2.50;;;19.40;99.90;;;;;;5014437;28;20411;-72
2021/09/23 11:55:27;;;;;;;3.10;2.73;;;19.30;99.90;;;;;;5014766;28;20435;-70
2021/09/23 11:58:08;;;;;;;3.80;2.90;;;19.70;99.90;;;;;;5013753;28;20551;-72
2021/09/23 12:00:37;;;;;;;3.90;2.70;;;19.60;99.90;;;;;;5013356;28;20415;-71
2021/09/23 12:03:03;;;;;;;2.40;2.13;;;19.50;99.90;;;;;;5013284;28;20404;-71
2021/09/23 12:05:30;;;;;;;2.23;1.90;;;19.70;99.90;;;;;;5013353;28;20750;-71
2021/09/23 12:07:56;;;;;;;2.93;1.77;;;19.90;99.90;;;;;;5013568;28;20501;-71
2021/09/23 12:10:22;;;;;;;2.50;2.00;;;19.70;99.90;;;;;;5013227;28;20457;-69
2021/09/23 12:13:01;;;;;;;2.20;1.83;;;19.50;99.90;;;;;;5012358;28;20524;-70
2021/09/23 12:15:31;;;;;;;2.20;2.00;;;19.50;99.90;;;;;;4995240;28;20555;-70
2021/09/23 12:17:58;;;;;;;2.27;1.50;;;20.00;99.90;;;;;;5012776;28;20523;-71
2021/09/23 12:20:38;;;;;;;2.47;2.27;;;20.10;99.90;;;;;;5013226;28;20848;-70
2021/09/23 12:23:34;;;;;;;1.30;1.20;;;19.70;99.90;;;;;;5012901;28;20410;-70
2021/09/23 12:26:23;;;;;;;1.43;1.33;;;19.80;99.90;;;;;;5012851;28;20758;-69
2021/09/23 12:29:20;;;;;;;1.67;1.57;;;19.80;99.90;;;;;;5013053;28;20857;-69
2021/09/23 12:31:58;;;;;;;1.70;1.60;;;19.70;99.90;;;;;;5012711;28;20489;-71
2021/09/23 12:34:25;;;;;;;1.67;1.20;;;19.70;99.90;;;;;;5012180;28;20422;-71
2021/09/23 12:37:12;;;;;;;1.57;1.47;;;19.50;99.90;;;;;;5012502;28;20930;-69
2021/09/23 12:39:43;;;;;;;2.67;1.40;;;19.80;99.90;;;;;;5012775;28;20469;-70
2021/09/23 12:42:16;;;;;;;1.77;1.47;;;19.90;99.90;;;;;;4995726;28;20820;-69